Rechercher aéroport 
image banner adimage banner adimage banner ad
image banner ad

KSZP - Santa Paula

Situé à Santa Paula, United States

ICAO - SZP, IATA -

Données fournies par Airmate  

Information générale

Coordonnées: N34°20'49" W119°3'42"
Élévation : 250 feet MSL.
Variation magnétique : 14° East
Voir autres Aéroports à California

Données opérationnelles

Special qualification required
Heure actuelle UTC:
Heure actuelle locale:
Météo à : KCMA - Camarillo ( 15 km )
METAR: KCMA 251555Z 00000KT 6SM HZ OVC008 19/16 A3000 RMK AO2 SLP167 T01940156
TAF: KCMA 251621Z 2516/2612 VRB05KT 6SM BR OVC008 FM251800 VRB05KT 6SM BR OVC011 FM252000 25010KT P6SM SCT014 BKN120 FM260300 25006KT P6SM BKN007 BKN120
Voir NOTAMs / SUP AIP / TFR affectant cet aéroport [VIEW]
Fréquences de communication: [VIEW]

Pistes:

Identifiant RWYQFULongueur (ft)Largeur (ft)SurfaceLDA (ft)
04266560ASPH
22266560ASPH

Coordonnées de l'aéroport

Adresse: Santa Paula United States

Autres services d'aviation

Écoles de pilotage

Cp Aviation

Cp Aviation
judy@cpaviation.com+1(805)525-2138

Vue satellite de KSZP